Time,TemperatureF,DewpointF,PressureIn,WindDirection,WindDirectionDegrees,WindSpeedMPH,WindSpeedGustMPH,Humidity,HourlyPrecipIn,Conditions,Clouds,dailyrainin,SoftwareType,DateUTC
2013-12-03 00:01:00,22.5,21.3,29.93,NNE,26,0.0,0.0,95,0.00,,---,0.00,VWS V13.01,2013-12-03 05:01:00,
2013-12-03 00:02:00,22.4,21.2,29.93,NNE,26,0.0,0.0,95,0.00,,---,0.00,VWS V13.01,2013-12-03 05:02:00,
2013-12-03 00:03:00,22.4,21.2,29.93,NNE,26,0.0,0.0,95,0.00,,---,0.00,VWS V13.01,2013-12-03 05:03:00,
2013-12-03 00:04:00,22.2,20.7,29.94,NNE,27,0.0,0.0,94,0.00,,---,0.00,VWS V13.01,2013-12-03 05:04:00,
2013-12-03 00:10:00,21.9,20.7,29.94,NNE,27,0.0,0.0,95,0.00,,---,0.00,VWS V13.01,2013-12-03 05:10:00,
2013-12-03 00:11:00,21.8,20.6,29.94,NNE,27,0.0,0.0,95,0.00,,---,0.00,VWS V13.01,2013-12-03 05:11:00,
2013-12-03 00:16:00,21.5,20.3,29.94,NNE,26,0.0,0.0,95,0.00,,---,0.00,VWS V13.01,2013-12-03 05:16:00,
2013-12-03 00:21:00,21.8,20.6,29.94,NNE,27,0.0,0.0,95,0.00,,---,0.00,VWS V13.01,2013-12-03 05:21:00,
2013-12-03 00:26:00,22.1,20.9,29.94,NNE,27,0.0,0.0,95,0.00,,---,0.00,VWS V13.01,2013-12-03 05:26:00,
2013-12-03 00:31:00,22.4,21.2,29.94,NNE,26,0.0,0.0,95,0.00,,---,0.00,VWS V13.01,2013-12-03 05:31:00,
2013-12-03 00:36:00,22.7,21.7,29.94,NNE,27,0.0,0.0,96,0.00,,---,0.00,VWS V13.01,2013-12-03 05:36:00,
2013-12-03 00:41:00,23.0,22.0,29.94,NNE,26,0.0,0.0,96,0.00,,---,0.00,VWS V13.01,2013-12-03 05:41:00,
2013-12-03 00:46:00,22.9,21.9,29.94,NNE,26,0.0,0.0,96,0.00,,---,0.00,VWS V13.01,2013-12-03 05:46:00,
2013-12-03 00:52:00,22.5,21.5,29.95,NNE,27,0.0,0.0,96,0.00,,---,0.00,VWS V13.01,2013-12-03 05:52:00,
2013-12-03 00:57:00,21.9,20.7,29.94,NNE,27,0.0,0.0,95,0.00,,---,0.00,VWS V13.01,2013-12-03 05:57:00,
2013-12-03 01:02:00,21.6,20.4,29.95,NNE,27,0.0,0.0,95,0.00,,---,0.00,VWS V13.01,2013-12-03 06:02:00,
2013-12-03 01:07:00,21.5,20.3,29.95,NNE,26,0.0,0.0,95,0.00,,---,0.00,VWS V13.01,2013-12-03 06:07:00,
2013-12-03 01:12:00,21.5,20.3,29.95,NNE,27,0.0,0.0,95,0.00,,---,0.00,VWS V13.01,2013-12-03 06:12:00,
2013-12-03 01:17:00,21.5,20.3,29.95,NNE,26,0.0,0.0,95,0.00,,---,0.00,VWS V13.01,2013-12-03 06:17:00,
2013-12-03 01:22:00,21.3,20.1,29.95,NNE,26,0.0,0.0,95,0.00,,---,0.00,VWS V13.01,2013-12-03 06:22:00,
2013-12-03 01:27:00,20.9,19.7,29.95,NNE,27,0.0,0.0,95,0.00,,---,0.00,VWS V13.01,2013-12-03 06:27:00,
2013-12-03 01:32:00,20.5,19.3,29.95,NNE,27,0.0,0.0,95,0.00,,---,0.00,VWS V13.01,2013-12-03 06:32:00,
2013-12-03 01:37:00,20.1,18.9,29.95,NNE,26,0.0,0.0,95,0.00,,---,0.00,VWS V13.01,2013-12-03 06:37:00,
2013-12-03 01:42:00,19.8,18.6,29.95,NNE,27,0.0,0.0,95,0.00,,---,0.00,VWS V13.01,2013-12-03 06:42:00,
2013-12-03 01:47:00,19.7,18.5,29.95,NNE,27,0.0,0.0,95,0.00,,---,0.00,VWS V13.01,2013-12-03 06:47:00,
2013-12-03 01:52:00,19.7,18.3,29.95,NNE,26,0.0,0.0,94,0.00,,---,0.00,VWS V13.01,2013-12-03 06:52:00,
2013-12-03 01:57:00,19.7,18.5,29.95,NNE,27,0.0,0.0,95,0.00,,---,0.00,VWS V13.01,2013-12-03 06:57:00,
2013-12-03 02:02:00,19.7,18.5,29.95,NNE,27,0.0,0.0,95,0.00,,---,0.00,VWS V13.01,2013-12-03 07:02:00,
2013-12-03 02:08:00,19.9,18.7,29.96,NNE,27,0.0,0.0,95,0.00,,---,0.00,VWS V13.01,2013-12-03 07:08:00,
2013-12-03 02:13:00,20.0,18.8,29.96,NNE,27,0.0,0.0,95,0.00,,---,0.00,VWS V13.01,2013-12-03 07:13:00,
2013-12-03 02:18:00,20.0,18.5,29.96,NNE,26,0.0,0.0,94,0.00,,---,0.00,VWS V13.01,2013-12-03 07:18:00,
2013-12-03 02:23:00,19.7,18.3,29.96,NNE,27,0.0,0.0,94,0.00,,---,0.00,VWS V13.01,2013-12-03 07:23:00,
2013-12-03 02:28:00,19.7,18.3,29.96,NNE,27,0.0,0.0,94,0.00,,---,0.00,VWS V13.01,2013-12-03 07:28:00,
2013-12-03 02:33:00,19.7,18.3,29.96,NNE,27,0.0,0.0,94,0.00,,---,0.00,VWS V13.01,2013-12-03 07:33:00,
2013-12-03 02:38:00,19.3,17.9,29.96,NNE,26,0.0,0.0,94,0.00,,---,0.00,VWS V13.01,2013-12-03 07:38:00,
2013-12-03 02:43:00,19.0,17.6,29.96,NNE,27,0.0,0.0,94,0.00,,---,0.00,VWS V13.01,2013-12-03 07:43:00,
2013-12-03 02:48:00,18.7,17.0,29.96,NNE,26,0.0,0.0,93,0.00,,---,0.00,VWS V13.01,2013-12-03 07:48:00,
2013-12-03 02:53:00,18.5,17.1,29.97,NNE,27,0.0,0.0,94,0.00,,---,0.00,VWS V13.01,2013-12-03 07:53:00,
2013-12-03 02:58:00,18.3,16.9,29.97,NNE,27,0.0,0.0,94,0.00,,---,0.00,VWS V13.01,2013-12-03 07:58:00,
2013-12-03 03:03:00,18.0,16.3,29.97,NNE,26,0.0,0.0,93,0.00,,---,0.00,VWS V13.01,2013-12-03 08:03:00,
2013-12-03 03:08:00,17.7,16.0,29.97,NNE,26,0.0,0.0,93,0.00,,---,0.00,VWS V13.01,2013-12-03 08:08:00,
2013-12-03 03:14:00,17.5,15.8,29.97,NNE,27,0.0,0.0,93,0.00,,---,0.00,VWS V13.01,2013-12-03 08:14:00,
2013-12-03 03:19:00,17.3,15.6,29.97,NNE,26,0.0,0.0,93,0.00,,---,0.00,VWS V13.01,2013-12-03 08:19:00,
2013-12-03 03:24:00,17.1,15.4,29.97,NNE,27,0.0,0.0,93,0.00,,---,0.00,VWS V13.01,2013-12-03 08:24:00,
2013-12-03 03:29:00,17.0,15.3,29.97,NNE,26,0.0,0.0,93,0.00,,---,0.00,VWS V13.01,2013-12-03 08:29:00,
2013-12-03 03:34:00,16.7,15.0,29.97,NNE,27,0.0,0.0,93,0.00,,---,0.00,VWS V13.01,2013-12-03 08:34:00,
2013-12-03 03:39:00,16.6,14.9,29.97,NNE,27,0.0,0.0,93,0.00,,---,0.00,VWS V13.01,2013-12-03 08:39:00,
2013-12-03 03:44:00,16.6,14.9,29.97,NNE,27,0.0,0.0,93,0.00,,---,0.00,VWS V13.01,2013-12-03 08:44:00,
2013-12-03 03:49:00,16.4,14.7,29.97,NNE,27,0.0,0.0,93,0.00,,---,0.00,VWS V13.01,2013-12-03 08:49:00,
2013-12-03 03:54:00,16.2,14.5,29.97,NNE,27,0.0,0.0,93,0.00,,---,0.00,VWS V13.01,2013-12-03 08:54:00,
2013-12-03 03:59:00,16.0,14.3,29.97,NNE,27,0.0,0.0,93,0.00,,---,0.00,VWS V13.01,2013-12-03 08:59:00,
2013-12-03 04:04:00,16.2,14.5,29.98,NNE,26,0.0,0.0,93,0.00,,---,0.00,VWS V13.01,2013-12-03 09:04:00,
2013-12-03 04:09:00,16.1,14.4,29.98,NNE,27,0.0,0.0,93,0.00,,---,0.00,VWS V13.01,2013-12-03 09:09:00,
2013-12-03 04:14:00,15.8,14.1,29.98,NNE,26,0.0,0.0,93,0.00,,---,0.00,VWS V13.01,2013-12-03 09:14:00,
2013-12-03 04:19:00,16.0,14.3,29.98,NNE,27,0.0,0.0,93,0.00,,---,0.00,VWS V13.01,2013-12-03 09:19:00,
2013-12-03 04:25:00,16.2,14.5,29.98,NNE,27,0.0,0.0,93,0.00,,---,0.00,VWS V13.01,2013-12-03 09:25:00,
2013-12-03 04:30:00,16.2,14.5,29.98,NNE,27,0.0,0.0,93,0.00,,---,0.00,VWS V13.01,2013-12-03 09:30:00,
2013-12-03 04:35:00,16.2,14.5,29.98,NNE,27,0.0,0.0,93,0.00,,---,0.00,VWS V13.01,2013-12-03 09:35:00,
2013-12-03 04:40:00,16.3,14.6,29.98,NNE,26,0.0,0.0,93,0.00,,---,0.00,VWS V13.01,2013-12-03 09:40:00,
2013-12-03 04:45:00,16.3,14.6,29.98,NNE,27,0.0,0.0,93,0.00,,---,0.00,VWS V13.01,2013-12-03 09:45:00,
2013-12-03 04:50:00,16.4,14.7,29.98,NNE,26,0.0,0.0,93,0.00,,---,0.00,VWS V13.01,2013-12-03 09:50:00,
2013-12-03 04:55:00,16.4,14.7,29.98,NNE,26,0.0,0.0,93,0.00,,---,0.00,VWS V13.01,2013-12-03 09:55:00,
2013-12-03 05:00:00,16.6,15.2,29.98,NNE,27,0.0,0.0,94,0.00,,---,0.00,VWS V13.01,2013-12-03 10:00:00,
2013-12-03 05:05:00,16.6,15.2,29.98,NNE,27,0.0,0.0,94,0.00,,---,0.00,VWS V13.01,2013-12-03 10:05:00,
2013-12-03 05:10:00,16.6,14.9,29.99,NNE,27,0.0,0.0,93,0.00,,---,0.00,VWS V13.01,2013-12-03 10:10:00,
2013-12-03 05:15:00,16.6,14.9,29.99,NNE,27,0.0,0.0,93,0.00,,---,0.00,VWS V13.01,2013-12-03 10:15:00,
2013-12-03 05:20:00,16.8,15.4,29.99,NNE,27,0.0,0.0,94,0.00,,---,0.00,VWS V13.01,2013-12-03 10:20:00,
2013-12-03 05:25:00,16.8,15.4,29.99,NNE,27,0.0,0.0,94,0.00,,---,0.00,VWS V13.01,2013-12-03 10:25:00,
2013-12-03 05:30:00,16.8,15.4,29.99,NNE,27,0.0,0.0,94,0.00,,---,0.00,VWS V13.01,2013-12-03 10:30:00,
2013-12-03 05:35:00,16.7,15.0,29.99,NNE,27,0.0,0.0,93,0.00,,---,0.00,VWS V13.01,2013-12-03 10:35:00,
2013-12-03 05:40:00,16.6,14.9,29.99,NNE,26,0.0,0.0,93,0.00,,---,0.00,VWS V13.01,2013-12-03 10:40:00,
2013-12-03 05:46:00,16.4,14.7,29.99,NNE,27,0.0,0.0,93,0.00,,---,0.00,VWS V13.01,2013-12-03 10:46:00,
2013-12-03 05:51:00,16.6,14.9,29.99,NNE,26,0.0,0.0,93,0.00,,---,0.00,VWS V13.01,2013-12-03 10:51:00,
2013-12-03 05:56:00,16.7,15.3,29.99,NNE,27,0.0,0.0,94,0.00,,---,0.00,VWS V13.01,2013-12-03 10:56:00,
2013-12-03 06:01:00,17.0,15.6,29.99,NNE,26,0.0,0.0,94,0.00,,---,0.00,VWS V13.01,2013-12-03 11:01:00,
2013-12-03 06:06:00,17.1,15.7,29.99,NNE,27,0.0,0.0,94,0.00,,---,0.00,VWS V13.01,2013-12-03 11:06:00,
2013-12-03 06:11:00,17.2,15.8,29.99,NNE,27,0.0,0.0,94,0.00,,---,0.00,VWS V13.01,2013-12-03 11:11:00,
2013-12-03 06:16:00,17.1,15.7,30.00,NNE,27,0.0,0.0,94,0.00,,---,0.00,VWS V13.01,2013-12-03 11:16:00,
2013-12-03 06:21:00,17.0,15.3,30.00,NNE,26,0.0,0.0,93,0.00,,---,0.00,VWS V13.01,2013-12-03 11:21:00,
2013-12-03 06:26:00,17.0,15.3,30.00,NNE,27,0.0,0.0,93,0.00,,---,0.00,VWS V13.01,2013-12-03 11:26:00,
2013-12-03 06:31:00,17.0,15.3,30.00,NNE,27,0.0,0.0,93,0.00,,---,0.00,VWS V13.01,2013-12-03 11:31:00,
2013-12-03 06:36:00,17.1,15.4,30.00,NNE,26,0.0,0.0,93,0.00,,---,0.00,VWS V13.01,2013-12-03 11:36:00,
2013-12-03 06:41:00,17.1,15.4,30.00,NNE,27,0.0,0.0,93,0.00,,---,0.00,VWS V13.01,2013-12-03 11:41:00,
2013-12-03 06:46:00,17.1,15.4,30.00,NNE,26,0.0,0.0,93,0.00,,---,0.00,VWS V13.01,2013-12-03 11:46:00,
2013-12-03 06:52:00,17.0,15.3,30.00,NNE,27,0.0,0.0,93,0.00,,---,0.00,VWS V13.01,2013-12-03 11:52:00,
2013-12-03 06:57:00,16.9,15.2,30.01,NNE,27,0.0,0.0,93,0.00,,---,0.00,VWS V13.01,2013-12-03 11:57:00,
2013-12-03 07:02:00,17.0,15.6,30.01,NNE,26,0.0,0.0,94,0.00,,---,0.00,VWS V13.01,2013-12-03 12:02:00,
2013-12-03 07:07:00,17.3,15.9,30.01,NNE,27,0.0,0.0,94,0.00,,---,0.00,VWS V13.01,2013-12-03 12:07:00,
2013-12-03 07:12:00,17.2,15.8,30.01,NNE,27,0.0,0.0,94,0.00,,---,0.00,VWS V13.01,2013-12-03 12:12:00,
2013-12-03 07:17:00,16.9,15.2,30.01,NNE,26,0.0,0.0,93,0.00,,---,0.00,VWS V13.01,2013-12-03 12:17:00,
2013-12-03 07:22:00,16.8,15.1,30.01,NNE,27,0.0,0.0,93,0.00,,---,0.00,VWS V13.01,2013-12-03 12:22:00,
2013-12-03 07:27:00,16.9,15.2,30.01,NNE,26,0.0,0.0,93,0.00,,---,0.00,VWS V13.01,2013-12-03 12:27:00,
2013-12-03 07:32:00,17.4,16.0,30.01,NNE,27,0.0,0.0,94,0.00,,---,0.00,VWS V13.01,2013-12-03 12:32:00,
2013-12-03 07:37:00,17.7,16.3,30.01,NNE,27,0.0,0.0,94,0.00,,---,0.00,VWS V13.01,2013-12-03 12:37:00,
2013-12-03 07:42:00,18.1,16.7,30.01,NNE,27,0.0,0.0,94,0.00,,---,0.00,VWS V13.01,2013-12-03 12:42:00,
2013-12-03 07:47:00,18.5,17.1,30.01,NNE,27,0.0,0.0,94,0.00,,---,0.00,VWS V13.01,2013-12-03 12:47:00,
2013-12-03 07:52:00,19.0,17.8,30.01,NNE,27,0.0,0.0,95,0.00,,---,0.00,VWS V13.01,2013-12-03 12:52:00,
2013-12-03 07:57:00,19.5,18.3,30.01,NNE,27,0.0,0.0,95,0.00,,---,0.00,VWS V13.01,2013-12-03 12:57:00,
2013-12-03 08:03:00,19.9,18.7,30.02,NNE,27,0.0,0.0,95,0.00,,---,0.00,VWS V13.01,2013-12-03 13:03:00,
2013-12-03 08:08:00,20.5,19.3,30.02,NNE,26,0.0,0.0,95,0.00,,---,0.00,VWS V13.01,2013-12-03 13:08:00,
2013-12-03 08:13:00,20.8,19.6,30.02,NNE,27,0.0,0.0,95,0.00,,---,0.00,VWS V13.01,2013-12-03 13:13:00,
2013-12-03 08:18:00,21.2,20.0,30.02,NNE,27,0.0,0.0,95,0.00,,---,0.00,VWS V13.01,2013-12-03 13:18:00,
2013-12-03 08:23:00,21.5,20.3,30.02,NNE,26,0.0,0.0,95,0.00,,---,0.00,VWS V13.01,2013-12-03 13:23:00,
2013-12-03 08:28:00,21.7,20.5,30.03,NNE,27,0.0,0.0,95,0.00,,---,0.00,VWS V13.01,2013-12-03 13:28:00,
2013-12-03 08:33:00,22.0,20.8,30.03,NNE,26,0.0,0.0,95,0.00,,---,0.00,VWS V13.01,2013-12-03 13:33:00,
2013-12-03 08:38:00,22.3,21.1,30.03,NNE,26,0.0,0.0,95,0.00,,---,0.00,VWS V13.01,2013-12-03 13:38:00,
2013-12-03 08:43:00,22.5,21.5,30.03,NNE,27,0.0,0.0,96,0.00,,---,0.00,VWS V13.01,2013-12-03 13:43:00,
2013-12-03 08:48:00,22.7,21.7,30.03,NNE,26,0.0,0.0,96,0.00,,---,0.00,VWS V13.01,2013-12-03 13:48:00,
2013-12-03 08:53:00,23.0,22.0,30.03,NNE,27,0.0,0.0,96,0.00,,---,0.00,VWS V13.01,2013-12-03 13:53:00,
2013-12-03 08:58:00,23.2,22.2,30.03,NNE,27,0.0,0.0,96,0.00,,---,0.00,VWS V13.01,2013-12-03 13:58:00,
2013-12-03 09:03:00,23.4,22.4,30.03,NNE,27,0.0,0.0,96,0.00,,---,0.00,VWS V13.01,2013-12-03 14:03:00,
2013-12-03 09:08:00,23.6,22.6,30.03,NNE,27,0.0,0.0,96,0.00,,---,0.00,VWS V13.01,2013-12-03 14:08:00,
2013-12-03 09:13:00,23.7,22.7,30.03,NNE,27,0.0,0.0,96,0.00,,---,0.00,VWS V13.01,2013-12-03 14:13:00,
2013-12-03 09:18:00,23.9,22.9,30.04,NNE,27,0.0,0.0,96,0.00,,---,0.00,VWS V13.01,2013-12-03 14:18:00,
2013-12-03 09:24:00,24.0,23.0,30.04,NNE,27,0.0,0.0,96,0.00,,---,0.00,VWS V13.01,2013-12-03 14:24:00,
2013-12-03 09:29:00,24.2,23.2,30.04,NNE,26,0.0,0.0,96,0.00,,---,0.00,VWS V13.01,2013-12-03 14:29:00,
2013-12-03 09:34:00,24.4,23.4,30.04,NNE,26,0.0,0.0,96,0.00,,---,0.00,VWS V13.01,2013-12-03 14:34:00,
2013-12-03 09:39:00,24.6,23.6,30.04,NNE,27,0.0,0.0,96,0.00,,---,0.00,VWS V13.01,2013-12-03 14:39:00,
2013-12-03 09:44:00,24.9,23.9,30.05,NNE,27,0.0,0.0,96,0.00,,---,0.00,VWS V13.01,2013-12-03 14:44:00,
2013-12-03 09:49:00,25.1,24.1,30.05,NNE,26,0.0,0.0,96,0.00,,---,0.00,VWS V13.01,2013-12-03 14:49:00,
2013-12-03 09:54:00,25.3,24.3,30.05,NNE,27,0.0,1.0,96,0.00,,---,0.00,VWS V13.01,2013-12-03 14:54:00,
2013-12-03 09:59:00,25.4,24.4,30.06,NNE,26,0.0,1.0,96,0.00,,---,0.00,VWS V13.01,2013-12-03 14:59:00,
2013-12-03 10:04:00,25.6,24.6,30.06,NNE,27,0.0,0.0,96,0.00,,---,0.00,VWS V13.01,2013-12-03 15:04:00,
2013-12-03 10:09:00,25.8,24.8,30.06,NNE,27,0.0,0.0,96,0.00,,---,0.00,VWS V13.01,2013-12-03 15:09:00,
2013-12-03 10:14:00,26.2,25.2,30.06,NNE,26,0.0,0.0,96,0.00,,---,0.00,VWS V13.01,2013-12-03 15:14:00,
2013-12-03 10:19:00,26.4,25.7,30.05,NNE,27,0.0,0.0,97,0.00,,---,0.00,VWS V13.01,2013-12-03 15:19:00,
2013-12-03 10:24:00,26.6,25.9,30.05,NNE,26,0.0,0.0,97,0.00,,---,0.00,VWS V13.01,2013-12-03 15:24:00,
2013-12-03 10:29:00,26.8,26.1,30.05,NNE,27,0.0,0.0,97,0.00,,---,0.00,VWS V13.01,2013-12-03 15:29:00,
2013-12-03 10:34:00,27.1,26.4,30.05,NNE,27,0.0,0.0,97,0.00,,---,0.00,VWS V13.01,2013-12-03 15:34:00,
2013-12-03 10:40:00,27.1,26.4,30.05,NNE,27,0.0,0.0,97,0.00,,---,0.00,VWS V13.01,2013-12-03 15:40:00,
2013-12-03 10:45:00,27.4,26.7,30.06,NNE,26,0.0,0.0,97,0.00,,---,0.00,VWS V13.01,2013-12-03 15:45:00,
2013-12-03 10:50:00,27.6,26.9,30.06,NNE,27,0.0,0.0,97,0.00,,---,0.00,VWS V13.01,2013-12-03 15:50:00,
2013-12-03 10:55:00,28.0,27.3,30.05,NNE,26,0.0,0.0,97,0.00,,---,0.00,VWS V13.01,2013-12-03 15:55:00,
2013-12-03 11:00:00,28.2,27.5,30.05,NNE,26,0.0,0.0,97,0.00,,---,0.00,VWS V13.01,2013-12-03 16:00:00,
2013-12-03 11:05:00,28.2,27.5,30.04,NNE,27,0.0,0.0,97,0.00,,---,0.00,VWS V13.01,2013-12-03 16:05:00,
2013-12-03 11:10:00,28.3,27.6,30.04,NNE,26,0.0,0.0,97,0.00,,---,0.00,VWS V13.01,2013-12-03 16:10:00,
2013-12-03 11:15:00,28.6,27.9,30.04,NNE,26,0.0,0.0,97,0.00,,---,0.00,VWS V13.01,2013-12-03 16:15:00,
2013-12-03 11:20:00,28.8,28.1,30.03,NNE,27,0.0,0.0,97,0.00,,---,0.00,VWS V13.01,2013-12-03 16:20:00,
2013-12-03 11:25:00,29.0,28.3,30.03,NNE,27,0.0,0.0,97,0.00,,---,0.00,VWS V13.01,2013-12-03 16:25:00,
2013-12-03 11:30:00,29.2,28.5,30.02,NNE,27,0.0,0.0,97,0.00,,---,0.00,VWS V13.01,2013-12-03 16:30:00,
2013-12-03 11:35:00,29.1,28.4,30.02,NNE,27,0.0,1.0,97,0.00,,---,0.00,VWS V13.01,2013-12-03 16:35:00,
2013-12-03 11:41:00,29.2,28.5,30.02,NNE,27,0.0,1.0,97,0.00,,---,0.00,VWS V13.01,2013-12-03 16:41:00,
2013-12-03 11:46:00,29.4,28.7,30.01,NNE,27,0.0,1.0,97,0.00,,---,0.00,VWS V13.01,2013-12-03 16:46:00,
2013-12-03 11:51:00,29.6,28.9,30.01,NNE,27,0.0,1.0,97,0.00,,---,0.00,VWS V13.01,2013-12-03 16:51:00,
2013-12-03 11:56:00,29.8,29.0,30.01,NNE,27,0.0,1.0,97,0.00,,---,0.00,VWS V13.01,2013-12-03 16:56:00,
2013-12-03 12:01:00,30.1,29.4,30.01,NNE,26,0.0,0.0,97,0.00,,---,0.00,VWS V13.01,2013-12-03 17:01:00,
2013-12-03 12:06:00,30.3,29.5,30.01,NNE,26,0.0,1.0,97,0.00,,---,0.00,VWS V13.01,2013-12-03 17:06:00,
2013-12-03 12:11:00,30.6,29.9,30.00,NNE,27,0.0,1.0,97,0.00,,---,0.00,VWS V13.01,2013-12-03 17:11:00,
2013-12-03 12:16:00,30.8,30.0,30.00,NNE,26,0.0,1.0,97,0.00,,---,0.00,VWS V13.01,2013-12-03 17:16:00,
2013-12-03 12:21:00,31.0,30.2,30.00,NNE,27,0.0,1.0,97,0.01,,---,0.01,VWS V13.01,2013-12-03 17:21:00,
2013-12-03 12:26:00,31.4,30.9,30.00,NNE,27,0.0,1.0,98,0.01,,---,0.01,VWS V13.01,2013-12-03 17:26:00,
2013-12-03 12:31:00,31.9,31.1,30.00,NNE,27,0.0,0.0,97,0.01,,---,0.01,VWS V13.01,2013-12-03 17:31:00,
2013-12-03 12:36:00,32.3,31.5,30.00,NNE,27,0.0,0.0,97,0.01,,---,0.01,VWS V13.01,2013-12-03 17:36:00,
2013-12-03 12:41:00,32.7,32.2,30.00,NNE,27,0.0,1.0,98,0.01,,---,0.01,VWS V13.01,2013-12-03 17:41:00,
2013-12-03 12:46:00,33.0,32.2,30.00,NNE,27,0.0,1.0,97,0.01,,---,0.01,VWS V13.01,2013-12-03 17:46:00,
2013-12-03 12:51:00,33.4,32.9,30.00,NNE,27,0.0,1.0,98,0.01,,---,0.01,VWS V13.01,2013-12-03 17:51:00,
2013-12-03 12:56:00,33.9,33.4,30.00,NNE,26,0.0,1.0,98,0.02,,---,0.02,VWS V13.01,2013-12-03 17:56:00,
2013-12-03 13:01:00,33.9,33.4,30.01,NNE,27,0.0,0.0,98,0.02,,---,0.02,VWS V13.01,2013-12-03 18:01:00,
2013-12-03 13:06:00,33.7,33.2,30.00,NNE,27,0.0,0.0,98,0.02,,---,0.02,VWS V13.01,2013-12-03 18:06:00,
2013-12-03 13:12:00,33.8,33.3,30.00,NNE,26,0.0,0.0,98,0.03,,---,0.03,VWS V13.01,2013-12-03 18:12:00,
2013-12-03 13:17:00,33.9,33.1,30.01,NNE,27,0.0,0.0,97,0.03,,---,0.03,VWS V13.01,2013-12-03 18:17:00,
2013-12-03 13:22:00,33.9,33.1,30.00,NNE,27,0.0,1.0,97,0.03,,---,0.03,VWS V13.01,2013-12-03 18:22:00,
2013-12-03 13:27:00,34.2,33.4,30.00,NNE,26,0.0,1.0,97,0.03,,---,0.03,VWS V13.01,2013-12-03 18:27:00,
2013-12-03 13:32:00,34.4,33.6,30.00,NNE,27,0.0,0.0,97,0.02,,---,0.03,VWS V13.01,2013-12-03 18:32:00,
2013-12-03 13:37:00,34.4,33.6,30.00,NNE,27,0.0,1.0,97,0.02,,---,0.03,VWS V13.01,2013-12-03 18:37:00,
2013-12-03 13:42:00,34.4,33.6,30.00,NNE,27,0.0,1.0,97,0.02,,---,0.03,VWS V13.01,2013-12-03 18:42:00,
2013-12-03 13:47:00,34.4,33.4,30.00,NNE,27,0.0,1.0,96,0.03,,---,0.04,VWS V13.01,2013-12-03 18:47:00,
2013-12-03 13:52:00,34.7,33.7,30.00,NNE,26,0.0,1.0,96,0.03,,---,0.04,VWS V13.01,2013-12-03 18:52:00,
2013-12-03 13:57:00,34.9,33.6,30.00,NNE,27,0.0,2.0,95,0.03,,---,0.04,VWS V13.01,2013-12-03 18:57:00,
2013-12-03 14:02:00,35.3,34.0,30.00,NNE,26,0.0,0.0,95,0.02,,---,0.04,VWS V13.01,2013-12-03 19:02:00,
2013-12-03 14:07:00,35.8,34.2,30.00,NNE,27,0.0,0.0,94,0.02,,---,0.04,VWS V13.01,2013-12-03 19:07:00,
2013-12-03 14:12:00,36.3,34.7,30.00,NNE,27,0.0,0.0,94,0.02,,---,0.04,VWS V13.01,2013-12-03 19:12:00,
2013-12-03 14:18:00,36.4,34.3,30.00,NNE,26,0.0,0.0,92,0.02,,---,0.04,VWS V13.01,2013-12-03 19:18:00,
2013-12-03 14:23:00,36.2,33.8,30.00,NNE,27,0.0,0.0,91,0.02,,---,0.04,VWS V13.01,2013-12-03 19:23:00,
2013-12-03 14:28:00,36.2,33.8,30.01,NNE,27,0.0,0.0,91,0.02,,---,0.04,VWS V13.01,2013-12-03 19:28:00,
2013-12-03 14:33:00,36.0,33.6,30.01,NNE,27,0.0,0.0,91,0.01,,---,0.04,VWS V13.01,2013-12-03 19:33:00,
2013-12-03 14:38:00,35.7,33.3,30.01,NNE,27,0.0,0.0,91,0.01,,---,0.04,VWS V13.01,2013-12-03 19:38:00,
2013-12-03 14:43:00,35.4,33.0,30.01,NNE,27,0.0,0.0,91,0.02,,---,0.05,VWS V13.01,2013-12-03 19:43:00,
2013-12-03 14:48:00,35.2,33.1,30.01,NNE,27,0.0,0.0,92,0.02,,---,0.05,VWS V13.01,2013-12-03 19:48:00,
2013-12-03 14:53:00,35.0,32.9,30.01,NNE,27,0.0,0.0,92,0.02,,---,0.05,VWS V13.01,2013-12-03 19:53:00,
2013-12-03 14:58:00,34.8,32.7,30.01,NNE,26,0.0,0.0,92,0.02,,---,0.05,VWS V13.01,2013-12-03 19:58:00,
2013-12-03 15:03:00,34.7,32.6,30.01,NNE,26,0.0,0.0,92,0.01,,---,0.05,VWS V13.01,2013-12-03 20:03:00,
2013-12-03 15:08:00,34.5,32.7,30.01,NNE,26,0.0,0.0,93,0.01,,---,0.05,VWS V13.01,2013-12-03 20:08:00,
2013-12-03 15:14:00,34.5,32.7,30.01,NNE,26,0.0,0.0,93,0.01,,---,0.05,VWS V13.01,2013-12-03 20:14:00,
2013-12-03 15:19:00,34.7,32.9,30.01,NNE,27,0.0,0.0,93,0.01,,---,0.05,VWS V13.01,2013-12-03 20:19:00,
2013-12-03 15:24:00,34.7,32.9,30.02,NNE,26,0.0,0.0,93,0.01,,---,0.05,VWS V13.01,2013-12-03 20:24:00,
2013-12-03 15:29:00,34.5,32.7,30.02,NNE,27,0.0,0.0,93,0.01,,---,0.05,VWS V13.01,2013-12-03 20:29:00,
2013-12-03 15:34:00,34.4,32.6,30.02,NNE,26,0.0,0.0,93,0.01,,---,0.05,VWS V13.01,2013-12-03 20:34:00,
2013-12-03 15:39:00,34.4,32.6,30.02,NNE,26,0.0,0.0,93,0.01,,---,0.05,VWS V13.01,2013-12-03 20:39:00,
2013-12-03 15:44:00,34.4,32.6,30.02,NNE,27,0.0,0.0,93,0.01,,---,0.05,VWS V13.01,2013-12-03 20:44:00,
2013-12-03 15:49:00,34.4,32.6,30.02,NNE,27,0.0,0.0,93,0.01,,---,0.05,VWS V13.01,2013-12-03 20:49:00,
2013-12-03 15:54:00,34.4,32.6,30.02,NNE,26,0.0,0.0,93,0.01,,---,0.05,VWS V13.01,2013-12-03 20:54:00,
2013-12-03 15:59:00,34.4,32.6,30.02,NNE,27,0.0,0.0,93,0.01,,---,0.05,VWS V13.01,2013-12-03 20:59:00,
2013-12-03 16:04:00,34.4,32.6,30.01,NNE,27,0.0,0.0,93,0.00,,---,0.05,VWS V13.01,2013-12-03 21:04:00,
2013-12-03 16:09:00,34.0,32.2,30.01,NNE,27,0.0,0.0,93,0.00,,---,0.05,VWS V13.01,2013-12-03 21:09:00,
2013-12-03 16:14:00,33.9,32.1,30.01,NNE,27,0.0,0.0,93,0.00,,---,0.05,VWS V13.01,2013-12-03 21:14:00,
2013-12-03 16:20:00,33.9,32.1,30.01,NNE,27,0.0,0.0,93,0.00,,---,0.05,VWS V13.01,2013-12-03 21:20:00,
2013-12-03 16:25:00,33.7,31.9,30.01,NNE,26,0.0,0.0,93,0.00,,---,0.05,VWS V13.01,2013-12-03 21:25:00,
2013-12-03 16:30:00,33.6,32.1,30.02,NNE,26,0.0,0.0,94,0.00,,---,0.05,VWS V13.01,2013-12-03 21:30:00,
2013-12-03 16:35:00,33.3,31.8,30.02,NNE,27,0.0,0.0,94,0.00,,---,0.05,VWS V13.01,2013-12-03 21:35:00,
2013-12-03 16:40:00,33.1,31.6,30.02,NNE,26,0.0,0.0,94,0.00,,---,0.05,VWS V13.01,2013-12-03 21:40:00,
2013-12-03 16:45:00,33.0,31.5,30.02,NNE,27,0.0,0.0,94,0.00,,---,0.05,VWS V13.01,2013-12-03 21:45:00,
2013-12-03 16:50:00,33.0,31.5,30.02,NNE,27,0.0,0.0,94,0.00,,---,0.05,VWS V13.01,2013-12-03 21:50:00,
2013-12-03 16:55:00,33.0,31.5,30.02,NNE,26,0.0,0.0,94,0.00,,---,0.05,VWS V13.01,2013-12-03 21:55:00,
2013-12-03 17:01:00,33.0,31.7,30.01,NNE,27,0.0,0.0,95,0.00,,---,0.05,VWS V13.01,2013-12-03 22:01:00,
2013-12-03 17:06:00,32.9,31.4,30.02,NNE,26,0.0,0.0,94,0.00,,---,0.05,VWS V13.01,2013-12-03 22:06:00,
2013-12-03 17:11:00,32.9,31.6,30.02,NNE,27,0.0,0.0,95,0.00,,---,0.05,VWS V13.01,2013-12-03 22:11:00,
2013-12-03 17:16:00,32.9,31.6,30.02,NNE,27,0.0,0.0,95,0.00,,---,0.05,VWS V13.01,2013-12-03 22:16:00,
2013-12-03 17:21:00,32.9,31.6,30.02,NNE,26,0.0,0.0,95,0.00,,---,0.05,VWS V13.01,2013-12-03 22:21:00,
2013-12-03 17:26:00,32.8,31.5,30.02,NNE,27,0.0,0.0,95,0.00,,---,0.05,VWS V13.01,2013-12-03 22:26:00,
2013-12-03 17:31:00,32.7,31.4,30.03,NNE,26,0.0,0.0,95,0.00,,---,0.05,VWS V13.01,2013-12-03 22:31:00,
2013-12-03 17:36:00,32.6,31.3,30.03,NNE,26,0.0,0.0,95,0.00,,---,0.05,VWS V13.01,2013-12-03 22:36:00,
2013-12-03 17:41:00,32.5,31.2,30.03,NNE,27,0.0,0.0,95,0.00,,---,0.05,VWS V13.01,2013-12-03 22:41:00,
2013-12-03 17:46:00,32.4,31.1,30.03,NNE,26,0.0,0.0,95,0.00,,---,0.05,VWS V13.01,2013-12-03 22:46:00,
2013-12-03 17:51:00,32.2,30.9,30.03,NNE,27,0.0,0.0,95,0.00,,---,0.05,VWS V13.01,2013-12-03 22:51:00,
2013-12-03 17:56:00,32.1,30.8,30.03,NNE,27,0.0,0.0,95,0.00,,---,0.05,VWS V13.01,2013-12-03 22:56:00,
2013-12-03 18:01:00,32.0,30.7,30.03,NNE,27,0.0,0.0,95,0.00,,---,0.05,VWS V13.01,2013-12-03 23:01:00,
2013-12-03 18:06:00,31.8,30.5,30.02,NNE,26,0.0,0.0,95,0.00,,---,0.05,VWS V13.01,2013-12-03 23:06:00,
2013-12-03 18:11:00,31.8,30.5,30.02,NNE,27,0.0,0.0,95,0.00,,---,0.05,VWS V13.01,2013-12-03 23:11:00,
2013-12-03 18:17:00,31.9,30.6,30.03,NNE,27,0.0,0.0,95,0.00,,---,0.05,VWS V13.01,2013-12-03 23:17:00,
2013-12-03 18:22:00,31.9,30.9,30.04,NNE,26,0.0,0.0,96,0.00,,---,0.05,VWS V13.01,2013-12-03 23:22:00,
2013-12-03 18:27:00,31.9,30.9,30.03,NNE,27,0.0,0.0,96,0.00,,---,0.05,VWS V13.01,2013-12-03 23:27:00,
2013-12-03 18:32:00,31.9,30.6,30.04,NNE,26,0.0,0.0,95,0.00,,---,0.05,VWS V13.01,2013-12-03 23:32:00,
2013-12-03 18:37:00,31.9,30.6,30.04,NNE,27,0.0,0.0,95,0.00,,---,0.05,VWS V13.01,2013-12-03 23:37:00,
2013-12-03 18:42:00,31.9,30.9,30.04,NNE,26,0.0,0.0,96,0.00,,---,0.05,VWS V13.01,2013-12-03 23:42:00,
2013-12-03 18:47:00,31.9,30.9,30.04,NNE,26,0.0,0.0,96,0.00,,---,0.05,VWS V13.01,2013-12-03 23:47:00,
2013-12-03 18:52:00,31.9,30.9,30.04,NNE,27,0.0,0.0,96,0.00,,---,0.05,VWS V13.01,2013-12-03 23:52:00,
2013-12-03 18:57:00,31.9,30.9,30.04,NNE,26,0.0,0.0,96,0.00,,---,0.05,VWS V13.01,2013-12-03 23:57:00,
2013-12-03 19:02:00,31.9,30.9,30.04,NNE,27,0.0,0.0,96,0.00,,---,0.05,VWS V13.01,2013-12-04 00:02:00,
2013-12-03 19:07:00,31.9,30.9,30.05,NNE,26,0.0,0.0,96,0.00,,---,0.05,VWS V13.01,2013-12-04 00:07:00,
2013-12-03 19:12:00,31.9,30.9,30.05,NNE,27,0.0,0.0,96,0.00,,---,0.05,VWS V13.01,2013-12-04 00:12:00,
2013-12-03 19:17:00,31.8,30.8,30.05,NNE,27,0.0,0.0,96,0.00,,---,0.05,VWS V13.01,2013-12-04 00:17:00,
2013-12-03 19:22:00,31.8,30.8,30.05,NNE,27,0.0,0.0,96,0.00,,---,0.05,VWS V13.01,2013-12-04 00:22:00,
2013-12-03 19:27:00,31.8,30.8,30.05,NNE,26,0.0,0.0,96,0.00,,---,0.05,VWS V13.01,2013-12-04 00:27:00,
2013-12-03 19:32:00,31.7,30.7,30.05,NNE,27,0.0,0.0,96,0.00,,---,0.05,VWS V13.01,2013-12-04 00:32:00,
2013-12-03 19:38:00,31.7,30.7,30.05,NNE,27,0.0,0.0,96,0.00,,---,0.05,VWS V13.01,2013-12-04 00:38:00,
2013-12-03 19:43:00,31.7,30.7,30.05,NNE,26,0.0,0.0,96,0.00,,---,0.05,VWS V13.01,2013-12-04 00:43:00,
2013-12-03 19:48:00,31.7,30.7,30.05,NNE,26,0.0,0.0,96,0.00,,---,0.05,VWS V13.01,2013-12-04 00:48:00,
2013-12-03 19:53:00,31.7,30.7,30.05,NNE,27,0.0,0.0,96,0.00,,---,0.05,VWS V13.01,2013-12-04 00:53:00,
2013-12-03 19:58:00,31.7,30.7,30.05,NNE,26,0.0,0.0,96,0.00,,---,0.05,VWS V13.01,2013-12-04 00:58:00,
2013-12-03 20:04:00,31.6,30.6,30.05,NNE,27,0.0,0.0,96,0.00,,---,0.05,VWS V13.01,2013-12-04 01:04:00,
2013-12-03 20:09:00,31.5,30.5,30.05,NNE,27,0.0,0.0,96,0.00,,---,0.05,VWS V13.01,2013-12-04 01:09:00,
2013-12-03 20:14:00,31.5,30.5,30.05,NNE,27,0.0,0.0,96,0.00,,---,0.05,VWS V13.01,2013-12-04 01:14:00,
2013-12-03 20:19:00,31.4,30.4,30.05,NNE,26,0.0,0.0,96,0.00,,---,0.05,VWS V13.01,2013-12-04 01:19:00,
2013-12-03 20:24:00,31.4,30.4,30.05,NNE,27,0.0,0.0,96,0.00,,---,0.05,VWS V13.01,2013-12-04 01:24:00,
2013-12-03 20:29:00,31.4,30.4,30.05,NNE,27,0.0,0.0,96,0.00,,---,0.05,VWS V13.01,2013-12-04 01:29:00,
2013-12-03 20:34:00,31.4,30.4,30.05,NNE,27,0.0,0.0,96,0.00,,---,0.05,VWS V13.01,2013-12-04 01:34:00,
2013-12-03 20:39:00,31.4,30.4,30.05,NNE,26,0.0,0.0,96,0.00,,---,0.05,VWS V13.01,2013-12-04 01:39:00,
2013-12-03 20:44:00,31.4,30.4,30.05,NNE,26,0.0,0.0,96,0.00,,---,0.05,VWS V13.01,2013-12-04 01:44:00,
2013-12-03 20:49:00,31.4,30.4,30.05,NNE,27,0.0,0.0,96,0.00,,---,0.05,VWS V13.01,2013-12-04 01:49:00,
2013-12-03 20:54:00,31.3,30.3,30.05,NNE,26,0.0,0.0,96,0.00,,---,0.05,VWS V13.01,2013-12-04 01:54:00,
2013-12-03 20:59:00,31.3,30.3,30.05,NNE,26,0.0,0.0,96,0.00,,---,0.05,VWS V13.01,2013-12-04 01:59:00,
2013-12-03 21:05:00,31.1,30.1,30.05,NNE,26,0.0,0.0,96,0.00,,---,0.05,VWS V13.01,2013-12-04 02:05:00,
2013-12-03 21:10:00,31.0,30.0,30.05,NNE,26,0.0,0.0,96,0.00,,---,0.05,VWS V13.01,2013-12-04 02:10:00,
2013-12-03 21:15:00,30.9,29.9,30.04,NNE,27,0.0,0.0,96,0.00,,---,0.05,VWS V13.01,2013-12-04 02:15:00,
2013-12-03 21:20:00,30.7,29.7,30.04,NNE,26,0.0,0.0,96,0.00,,---,0.05,VWS V13.01,2013-12-04 02:20:00,
2013-12-03 21:25:00,30.7,29.7,30.04,NNE,27,0.0,0.0,96,0.00,,---,0.05,VWS V13.01,2013-12-04 02:25:00,
2013-12-03 21:30:00,30.7,29.7,30.04,NNE,27,0.0,0.0,96,0.00,,---,0.05,VWS V13.01,2013-12-04 02:30:00,
2013-12-03 21:35:00,30.7,29.7,30.04,NNE,26,0.0,0.0,96,0.00,,---,0.05,VWS V13.01,2013-12-04 02:35:00,
2013-12-03 21:40:00,30.7,29.7,30.04,NNE,27,0.0,0.0,96,0.00,,---,0.05,VWS V13.01,2013-12-04 02:40:00,
2013-12-03 21:45:00,30.7,29.7,30.05,NNE,26,0.0,0.0,96,0.00,,---,0.05,VWS V13.01,2013-12-04 02:45:00,
2013-12-03 21:50:00,30.7,30.0,30.05,NNE,27,0.0,0.0,97,0.00,,---,0.05,VWS V13.01,2013-12-04 02:50:00,
2013-12-03 21:56:00,30.8,30.0,30.04,NNE,27,0.0,0.0,97,0.00,,---,0.05,VWS V13.01,2013-12-04 02:56:00,
2013-12-03 22:01:00,31.4,30.6,30.04,NNE,27,2.0,3.0,97,0.00,,---,0.05,VWS V13.01,2013-12-04 03:01:00,
2013-12-03 22:06:00,32.0,31.2,30.04,NNE,26,0.0,3.0,97,0.00,,---,0.05,VWS V13.01,2013-12-04 03:06:00,
2013-12-03 22:11:00,31.9,31.1,30.04,NNE,26,0.0,3.0,97,0.00,,---,0.05,VWS V13.01,2013-12-04 03:11:00,
2013-12-03 22:16:00,31.7,31.0,30.04,NNE,26,0.0,3.0,97,0.00,,---,0.05,VWS V13.01,2013-12-04 03:16:00,
2013-12-03 22:21:00,31.5,30.8,30.03,NNE,27,0.0,3.0,97,0.00,,---,0.05,VWS V13.01,2013-12-04 03:21:00,
2013-12-03 22:26:00,31.4,30.6,30.03,NNE,27,0.0,3.0,97,0.00,,---,0.05,VWS V13.01,2013-12-04 03:26:00,
2013-12-03 22:31:00,31.3,30.5,30.03,NNE,26,0.0,0.0,97,0.00,,---,0.05,VWS V13.01,2013-12-04 03:31:00,
2013-12-03 22:36:00,31.1,30.1,30.03,NNE,27,0.0,0.0,96,0.00,,---,0.05,VWS V13.01,2013-12-04 03:36:00,
2013-12-03 22:41:00,31.0,30.0,30.03,NNE,27,0.0,0.0,96,0.00,,---,0.05,VWS V13.01,2013-12-04 03:41:00,
2013-12-03 22:46:00,31.0,30.0,30.03,NNE,26,0.0,0.0,96,0.00,,---,0.05,VWS V13.01,2013-12-04 03:46:00,
2013-12-03 22:51:00,30.9,29.9,30.03,NNE,27,0.0,0.0,96,0.00,,---,0.05,VWS V13.01,2013-12-04 03:51:00,
2013-12-03 22:57:00,30.9,30.1,30.04,NNE,27,0.0,0.0,97,0.00,,---,0.05,VWS V13.01,2013-12-04 03:57:00,
2013-12-03 23:02:00,30.8,30.0,30.04,NNE,26,0.0,0.0,97,0.00,,---,0.05,VWS V13.01,2013-12-04 04:02:00,
2013-12-03 23:07:00,30.7,30.0,30.04,NNE,27,0.0,0.0,97,0.00,,---,0.05,VWS V13.01,2013-12-04 04:07:00,
2013-12-03 23:12:00,30.7,30.0,30.04,NNE,27,0.0,0.0,97,0.00,,---,0.05,VWS V13.01,2013-12-04 04:12:00,
2013-12-03 23:17:00,30.6,29.6,30.04,NNE,26,0.0,0.0,96,0.00,,---,0.05,VWS V13.01,2013-12-04 04:17:00,
2013-12-03 23:22:00,30.6,29.6,30.04,NNE,27,0.0,0.0,96,0.00,,---,0.05,VWS V13.01,2013-12-04 04:22:00,
2013-12-03 23:27:00,30.6,29.6,30.05,NNE,27,0.0,0.0,96,0.00,,---,0.05,VWS V13.01,2013-12-04 04:27:00,
2013-12-03 23:32:00,30.7,30.0,30.05,NNE,26,0.0,0.0,97,0.00,,---,0.05,VWS V13.01,2013-12-04 04:32:00,
2013-12-03 23:37:00,30.7,30.0,30.04,NNE,27,0.0,0.0,97,0.00,,---,0.05,VWS V13.01,2013-12-04 04:37:00,
2013-12-03 23:42:00,30.7,30.0,30.05,NNE,26,0.0,0.0,97,0.00,,---,0.05,VWS V13.01,2013-12-04 04:42:00,
2013-12-03 23:47:00,30.7,30.0,30.04,NNE,26,0.0,0.0,97,0.00,,---,0.05,VWS V13.01,2013-12-04 04:47:00,
2013-12-03 23:52:00,30.8,30.0,30.04,NNE,27,0.0,0.0,97,0.00,,---,0.05,VWS V13.01,2013-12-04 04:52:00,
2013-12-03 23:57:00,30.7,30.0,30.04,NNE,26,0.0,0.0,97,0.00,,---,0.05,VWS V13.01,2013-12-04 04:57:00,